Time;durP1;ratioP1;P1;durP2;ratioP2;P2;SDS_P1;SDS_P2;PMS_P1;PMS_P2;Temp;Humidity;BMP_temperature;BMP_pressure;BME280_temperature;BME280_humidity;BME280_pressure;Samples;Min_cycle;Max_cycle;Signal;HPM_P1;HPM_P2
2022/09/01 00:01:05;;;;;;;;;;;;;;;14.98;nan;102107.59;5036842;28;19912;-57
2022/09/01 00:03:30;;;;;;;;;;;;;;;14.93;nan;102101.56;5052924;28;19967;-53
2022/09/01 00:05:56;;;;;;;;;;;;;;;14.89;nan;102102.56;5053794;28;19952;-56
2022/09/01 00:08:22;;;;;;;;;;;;;;;14.86;nan;102102.66;5036365;28;19917;-58
2022/09/01 00:10:47;;;;;;;;;;;;;;;14.82;nan;102095.72;5036567;28;19925;-58
2022/09/01 00:13:13;;;;;;;;;;;;;;;14.79;nan;102091.41;5036570;28;19999;-55
2022/09/01 00:15:38;;;;;;;;;;;;;;;14.75;nan;102087.09;5019939;28;19917;-55
2022/09/01 00:18:03;;;;;;;;;;;;;;;14.71;nan;102089.88;5036840;28;19963;-56
2022/09/01 00:20:28;;;;;;;;;;;;;;;14.67;nan;102088.22;5036128;28;19920;-54
2022/09/01 00:22:54;;;;;;;;;;;;;;;14.62;nan;102089.22;5054203;28;19912;-58
2022/09/01 00:25:19;;;;;;;;;;;;;;;14.58;nan;102089.38;5054158;28;19992;-57
2022/09/01 00:27:46;;;;;;;;;;;;;;;14.53;nan;102080.69;5053644;28;19940;-57
2022/09/01 00:30:12;;;;;;;;;;;;;;;14.51;nan;102077.19;5054068;28;19952;-60
2022/09/01 00:32:37;;;;;;;;;;;;;;;14.46;nan;102084.41;5054151;28;19967;-57
2022/09/01 00:35:02;;;;;;;;;;;;;;;14.43;nan;102073.91;5036339;28;19917;-58
2022/09/01 00:37:28;;;;;;;;;;;;;;;14.41;nan;102078.41;5054067;28;19912;-57
2022/09/01 00:39:53;;;;;;;;;;;;;;;14.37;nan;102072.31;5053880;28;19920;-56
2022/09/01 00:42:18;;;;;;;;;;;;;;;14.36;nan;102073.22;5053754;28;19974;-58
2022/09/01 00:44:44;;;;;;;;;;;;;;;14.34;nan;102080.34;5036347;28;19909;-59
2022/09/01 00:47:09;;;;;;;;;;;;;;;14.32;nan;102073.31;5053842;28;20452;-57
2022/09/01 00:49:38;;;;;;;;;;;;;;;14.28;nan;102067.22;5053427;28;19917;-60
2022/09/01 00:52:04;;;;;;;;;;;;;;;14.28;nan;102069.00;5035580;28;20070;-58
2022/09/01 00:54:32;;;;;;;;;;;;;;;14.25;nan;102061.16;5035771;28;19913;-58
2022/09/01 00:56:57;;;;;;;;;;;;;;;14.21;nan;102060.38;5035365;28;20360;-57
2022/09/01 00:59:22;;;;;;;;;;;;;;;14.17;nan;102061.38;5035486;28;20039;-58
2022/09/01 01:01:48;;;;;;;;;;;;;;;14.15;nan;102059.69;5053468;28;19909;-57
2022/09/01 01:04:16;;;;;;;;;;;;;;;14.15;nan;102062.34;5053388;28;20368;-60
2022/09/01 01:06:48;;;;;;;;;;;;;;;14.14;nan;102061.47;5053146;28;19916;-57
2022/09/01 01:09:14;;;;;;;;;;;;;;;14.13;nan;102050.94;5053194;28;19909;-59
2022/09/01 01:11:39;;;;;;;;;;;;;;;14.12;nan;102059.78;5035347;28;19921;-56
2022/09/01 01:14:10;;;;;;;;;;;;;;;14.12;nan;102062.41;5053102;28;19920;-57
2022/09/01 01:16:36;;;;;;;;;;;;;;;14.09;nan;102052.78;5053338;28;19939;-59
2022/09/01 01:19:02;;;;;;;;;;;;;;;14.08;nan;102046.63;5053089;28;19916;-59
2022/09/01 01:24:18;;;;;;;;;;;;;;;14.03;nan;102050.31;5053214;28;19958;-59
2022/09/01 01:26:43;;;;;;;;;;;;;;;13.99;nan;102046.00;5052822;28;20327;-58
2022/09/01 01:29:09;;;;;;;;;;;;;;;13.97;nan;102048.69;5035245;28;19913;-57
2022/09/01 01:31:34;;;;;;;;;;;;;;;13.95;nan;102052.28;5035124;28;19943;-57
2022/09/01 01:34:00;;;;;;;;;;;;;;;13.93;nan;102049.69;5052738;28;19912;-56
2022/09/01 01:36:31;;;;;;;;;;;;;;;13.91;nan;102048.84;5052742;28;19913;-58
2022/09/01 01:39:00;;;;;;;;;;;;;;;13.88;nan;102045.41;5052994;28;19913;-58
2022/09/01 01:41:26;;;;;;;;;;;;;;;13.88;nan;102056.88;5035488;28;20023;-57
2022/09/01 01:43:51;;;;;;;;;;;;;;;13.86;nan;102049.91;5052651;28;20054;-57
2022/09/01 01:46:17;;;;;;;;;;;;;;;13.85;nan;102048.16;5034965;28;19916;-57
2022/09/01 01:48:43;;;;;;;;;;;;;;;13.82;nan;102043.81;5052703;28;19909;-56
2022/09/01 01:51:09;;;;;;;;;;;;;;;13.81;nan;102038.53;5034173;28;19917;-59
2022/09/01 01:53:34;;;;;;;;;;;;;;;13.79;nan;102037.72;5052914;28;19943;-58
2022/09/01 01:56:01;;;;;;;;;;;;;;;13.76;nan;102032.50;5034855;28;19913;-56
2022/09/01 01:58:27;;;;;;;;;;;;;;;13.76;nan;102035.16;5052432;28;19924;-59
2022/09/01 02:00:53;;;;;;;;;;;;;;;13.75;nan;102036.06;5052523;28;19919;-56
2022/09/01 02:03:20;;;;;;;;;;;;;;;13.74;nan;102042.28;5034779;28;19913;-58
2022/09/01 02:05:46;;;;;;;;;;;;;;;13.71;nan;102034.41;5052582;28;20339;-52
2022/09/01 02:08:14;;;;;;;;;;;;;;;13.71;nan;102035.28;5034728;28;19913;-58
2022/09/01 02:10:41;;;;;;;;;;;;;;;13.69;nan;102037.09;5034725;28;19921;-57
2022/09/01 02:13:07;;;;;;;;;;;;;;;13.67;nan;102035.41;5052318;28;19912;-54
2022/09/01 02:15:42;;;;;;;;;;;;;;;13.67;nan;102044.22;5034695;28;19917;-59
2022/09/01 02:18:07;;;;;;;;;;;;;;;13.64;nan;102033.69;5052323;28;19924;-54
2022/09/01 02:20:32;;;;;;;;;;;;;;;13.62;nan;102030.25;5051930;28;19913;-59
2022/09/01 02:22:58;;;;;;;;;;;;;;;13.61;nan;102027.63;5034409;28;19912;-57
2022/09/01 02:25:26;;;;;;;;;;;;;;;13.59;nan;102029.44;5052261;28;19912;-57
2022/09/01 02:27:54;;;;;;;;;;;;;;;13.58;nan;102032.97;5052610;28;19975;-59
2022/09/01 02:30:19;;;;;;;;;;;;;;;13.56;nan;102032.16;5051718;28;20007;-55
2022/09/01 02:32:46;;;;;;;;;;;;;;;13.53;nan;102033.13;5034124;28;20355;-57
2022/09/01 02:35:12;;;;;;;;;;;;;;;13.51;nan;102027.00;5052176;28;20384;-59
2022/09/01 02:37:38;;;;;;;;;;;;;;;13.48;nan;102021.78;5052111;28;20018;-56
2022/09/01 02:40:04;;;;;;;;;;;;;;;13.47;nan;102025.34;5052270;28;20012;-59
2022/09/01 02:42:29;;;;;;;;;;;;;;;13.46;nan;102023.59;5034211;28;19921;-59
2022/09/01 02:44:55;;;;;;;;;;;;;;;13.45;nan;102027.16;5051424;28;19928;-59
2022/09/01 02:47:22;;;;;;;;;;;;;;;13.44;nan;102017.47;5051870;28;20003;-56
2022/09/01 02:49:49;;;;;;;;;;;;;;;13.42;nan;102014.00;5034499;28;19921;-59
2022/09/01 02:52:16;;;;;;;;;;;;;;;13.41;nan;102004.34;5052135;28;19912;-58
2022/09/01 02:54:44;;;;;;;;;;;;;;;13.39;nan;102017.59;5034571;28;19913;-59
2022/09/01 02:57:10;;;;;;;;;;;;;;;13.39;nan;102008.81;5034393;28;19924;-57
2022/09/01 02:59:36;;;;;;;;;;;;;;;13.38;nan;102004.41;5034082;28;19912;-58
2022/09/01 03:02:01;;;;;;;;;;;;;;;13.36;nan;102011.53;5051949;28;19917;-58
2022/09/01 03:04:26;;;;;;;;;;;;;;;13.33;nan;102009.81;5034280;28;19917;-56
2022/09/01 03:06:53;;;;;;;;;;;;;;;13.34;nan;102005.38;5052052;28;20287;-53
2022/09/01 03:09:18;;;;;;;;;;;;;;;13.31;nan;102006.34;5051865;28;20379;-58
2022/09/01 03:11:45;;;;;;;;;;;;;;;13.30;nan;101998.44;5033875;28;20059;-56
2022/09/01 03:14:11;;;;;;;;;;;;;;;13.26;nan;102000.28;5050451;28;20291;-57
2022/09/01 03:16:37;;;;;;;;;;;;;;;13.24;nan;102003.88;5034053;28;19921;-57
2022/09/01 03:19:06;;;;;;;;;;;;;;;13.21;nan;102001.31;5034285;28;19919;-57
2022/09/01 03:21:31;;;;;;;;;;;;;;;13.20;nan;102000.44;5019688;28;20383;-57
2022/09/01 03:23:57;;;;;;;;;;;;;;;13.19;nan;102005.78;5055371;28;20051;-54
2022/09/01 03:26:22;;;;;;;;;;;;;;;13.17;nan;101995.22;5055387;28;19912;-57
2022/09/01 03:28:48;;;;;;;;;;;;;;;13.16;nan;101998.81;5055071;28;20006;-56
2022/09/01 03:31:13;;;;;;;;;;;;;;;13.15;nan;102010.28;5055231;28;20012;-56
2022/09/01 03:33:39;;;;;;;;;;;;;;;13.14;nan;101999.72;5055205;28;19912;-58
2022/09/01 03:36:04;;;;;;;;;;;;;;;13.15;nan;102001.47;5055132;28;19920;-56
2022/09/01 03:38:31;;;;;;;;;;;;;;;13.14;nan;102003.25;5037273;28;20015;-57
2022/09/01 03:41:00;;;;;;;;;;;;;;;13.12;nan;101997.13;5055339;28;19923;-56
2022/09/01 03:43:26;;;;;;;;;;;;;;;13.11;nan;101998.03;5037198;28;20269;-60
2022/09/01 03:45:53;;;;;;;;;;;;;;;13.08;nan;101990.16;5037391;28;19919;-56
2022/09/01 03:48:19;;;;;;;;;;;;;;;13.06;nan;101994.59;5037526;28;19913;-56
2022/09/01 03:50:45;;;;;;;;;;;;;;;13.05;nan;101994.66;5054577;28;19916;-58
2022/09/01 03:53:15;;;;;;;;;;;;;;;13.02;nan;101997.38;5055004;28;19924;-59
2022/09/01 03:55:43;;;;;;;;;;;;;;;13.01;nan;101995.63;5054755;28;20394;-58
2022/09/01 03:58:10;;;;;;;;;;;;;;;12.99;nan;101995.63;5054562;28;19916;-56
2022/09/01 04:00:41;;;;;;;;;;;;;;;12.96;nan;101993.94;5020298;28;19913;-55
2022/09/01 04:03:07;;;;;;;;;;;;;;;12.95;nan;102000.16;5054311;28;19938;-58
2022/09/01 04:05:33;;;;;;;;;;;;;;;12.93;nan;101991.38;5054560;28;19917;-56
2022/09/01 04:08:01;;;;;;;;;;;;;;;12.94;nan;101986.97;5054683;28;19979;-56
2022/09/01 04:10:26;;;;;;;;;;;;;;;12.93;nan;101983.44;5054590;28;20357;-58
2022/09/01 04:12:56;;;;;;;;;;;;;;;12.94;nan;101992.25;5054580;28;19924;-59
2022/09/01 04:15:21;;;;;;;;;;;;;;;12.92;nan;101989.66;5054002;28;19923;-54
2022/09/01 04:20:38;;;;;;;;;;;;;;;12.90;nan;101980.88;5054607;28;19927;-57
2022/09/01 04:23:09;;;;;;;;;;;;;;;12.89;nan;101986.22;5053467;28;19920;-58
2022/09/01 04:25:36;;;;;;;;;;;;;;;12.88;nan;101987.97;5054382;28;19920;-58
2022/09/01 04:28:13;;;;;;;;;;;;;;;12.89;nan;101988.84;5036568;28;20015;-57
2022/09/01 04:30:41;;;;;;;;;;;;;;;12.86;nan;101991.56;5021207;28;20312;-56
2022/09/01 04:33:07;;;;;;;;;;;;;;;12.85;nan;101989.81;5036798;28;19913;-58
2022/09/01 04:35:36;;;;;;;;;;;;;;;12.82;nan;101993.41;5036290;28;20376;-57
2022/09/01 04:38:02;;;;;;;;;;;;;;;12.82;nan;101993.41;5053894;28;19970;-56
2022/09/01 04:40:27;;;;;;;;;;;;;;;12.81;nan;101996.94;5053893;28;20108;-55
2022/09/01 04:42:52;;;;;;;;;;;;;;;12.81;nan;101999.59;5035924;28;19923;-56
2022/09/01 04:45:23;;;;;;;;;;;;;;;12.82;nan;101996.06;5053815;28;20011;-56
2022/09/01 04:47:49;;;;;;;;;;;;;;;12.81;nan;101996.09;5053682;28;20352;-60
2022/09/01 04:50:16;;;;;;;;;;;;;;;12.80;nan;101997.88;5053674;28;19963;-54
2022/09/01 04:52:42;;;;;;;;;;;;;;;12.77;nan;102007.63;5035934;28;20024;-58
2022/09/01 04:55:16;;;;;;;;;;;;;;;12.74;nan;101998.00;5053818;28;20003;-57
2022/09/01 04:57:46;;;;;;;;;;;;;;;12.74;nan;101999.78;5053496;28;20324;-58
2022/09/01 05:00:21;;;;;;;;;;;;;;;12.76;nan;101998.84;5036410;28;19912;-54
2022/09/01 05:02:46;;;;;;;;;;;;;;;12.78;nan;101996.16;5036743;28;20370;-56
2022/09/01 05:05:11;;;;;;;;;;;;;;;12.78;nan;101997.00;5053344;28;19916;-59
2022/09/01 05:07:36;;;;;;;;;;;;;;;12.79;nan;101987.31;5051662;28;19935;-58
2022/09/01 05:10:02;;;;;;;;;;;;;;;12.82;nan;101984.59;5051710;28;20299;-56
2022/09/01 05:12:28;;;;;;;;;;;;;;;12.80;nan;101982.00;5051591;28;19920;-53
2022/09/01 05:14:54;;;;;;;;;;;;;;;12.81;nan;101994.31;5050986;28;19924;-58
2022/09/01 05:17:20;;;;;;;;;;;;;;;12.84;nan;101999.50;5052382;28;20410;-55
2022/09/01 05:19:47;;;;;;;;;;;;;;;12.87;nan;102002.09;5033824;28;19916;-59
2022/09/01 05:22:13;;;;;;;;;;;;;;;12.87;nan;101993.31;5051699;28;20368;-55
2022/09/01 05:24:38;;;;;;;;;;;;;;;12.89;nan;101995.00;5033782;28;19920;-53
2022/09/01 05:27:04;;;;;;;;;;;;;;;12.92;nan;102000.22;5033903;28;19909;-59
2022/09/01 05:29:29;;;;;;;;;;;;;;;12.96;nan;101995.72;5034124;28;19913;-54
2022/09/01 05:31:55;;;;;;;;;;;;;;;13.01;nan;102003.53;5052237;28;19913;-57
2022/09/01 05:34:25;;;;;;;;;;;;;;;13.05;nan;101992.84;5035376;28;20360;-58
2022/09/01 05:36:51;;;;;;;;;;;;;;;13.11;nan;101992.75;5035859;28;20322;-58
2022/09/01 05:39:17;;;;;;;;;;;;;;;13.16;nan;101990.00;5052850;28;19912;-58
2022/09/01 05:41:42;;;;;;;;;;;;;;;13.21;nan;101994.25;5052657;28;19947;-57
2022/09/01 05:44:07;;;;;;;;;;;;;;;13.25;nan;102001.19;5052238;28;19939;-53
2022/09/01 05:46:34;;;;;;;;;;;;;;;13.31;nan;101998.41;5052762;28;19939;-58
2022/09/01 05:48:59;;;;;;;;;;;;;;;13.38;nan;102010.56;5052797;28;19920;-58
2022/09/01 05:51:26;;;;;;;;;;;;;;;13.46;nan;102010.38;5053671;28;19912;-55
2022/09/01 05:53:55;;;;;;;;;;;;;;;13.57;nan;102004.81;5035189;28;20062;-55
2022/09/01 05:56:21;;;;;;;;;;;;;;;13.67;nan;102004.50;5035254;28;19919;-54
2022/09/01 05:58:47;;;;;;;;;;;;;;;13.74;nan;102011.41;5034793;28;19995;-55
2022/09/01 06:01:21;;;;;;;;;;;;;;;13.85;nan;102011.09;5054652;28;19920;-55
2022/09/01 06:03:47;;;;;;;;;;;;;;;13.96;nan;102015.19;5034997;28;19917;-58
2022/09/01 06:06:14;;;;;;;;;;;;;;;14.08;nan;102017.50;5052714;28;20343;-55
2022/09/01 06:08:41;;;;;;;;;;;;;;;14.15;nan;102023.50;5052270;28;19917;-55
2022/09/01 06:11:11;;;;;;;;;;;;;;;14.22;nan;102025.03;5052394;28;19921;-59
2022/09/01 06:13:40;;;;;;;;;;;;;;;14.23;nan;102025.91;5035517;28;20310;-57
2022/09/01 06:16:06;;;;;;;;;;;;;;;14.22;nan;102032.09;5034960;28;19917;-55
2022/09/01 06:18:33;;;;;;;;;;;;;;;14.24;nan;102028.53;5052897;28;19952;-53
2022/09/01 06:20:58;;;;;;;;;;;;;;;14.24;nan;102028.53;5052127;28;20083;-55
2022/09/01 06:23:23;;;;;;;;;;;;;;;14.22;nan;102030.31;5052424;28;20015;-54
2022/09/01 06:25:50;;;;;;;;;;;;;;;14.27;nan;102027.56;5034325;28;19955;-53
2022/09/01 06:28:16;;;;;;;;;;;;;;;14.33;nan;102033.56;5052340;28;19917;-55
2022/09/01 06:30:43;;;;;;;;;;;;;;;14.36;nan;102030.81;5034357;28;19913;-55
2022/09/01 06:33:09;;;;;;;;;;;;;;;14.41;nan;102028.94;5052315;28;19920;-57
2022/09/01 06:35:35;;;;;;;;;;;;;;;14.47;nan;102033.19;5034334;28;20015;-54
2022/09/01 06:38:01;;;;;;;;;;;;;;;14.53;nan;102039.19;5052134;28;19912;-54
2022/09/01 06:40:27;;;;;;;;;;;;;;;14.61;nan;102042.47;5034256;28;20399;-56
2022/09/01 06:42:52;;;;;;;;;;;;;;;14.72;nan;102039.47;5052261;28;19917;-53
2022/09/01 06:45:19;;;;;;;;;;;;;;;14.82;nan;102038.28;5051463;28;19919;-58
2022/09/01 06:47:46;;;;;;;;;;;;;;;14.91;nan;102045.97;5034408;28;20000;-55
2022/09/01 06:50:13;;;;;;;;;;;;;;;14.97;nan;102040.44;5034466;28;19920;-56
2022/09/01 06:52:39;;;;;;;;;;;;;;;15.10;nan;102043.56;5052690;28;19913;-54
2022/09/01 06:55:04;;;;;;;;;;;;;;;15.20;nan;102058.28;5051880;28;20363;-54
2022/09/01 06:57:30;;;;;;;;;;;;;;;15.33;nan;102043.69;5055407;28;19970;-58
2022/09/01 06:59:55;;;;;;;;;;;;;;;15.48;nan;102053.84;5055775;28;20041;-56
2022/09/01 07:02:20;;;;;;;;;;;;;;;15.56;nan;102048.25;5055886;28;19963;-57
2022/09/01 07:04:45;;;;;;;;;;;;;;;15.71;nan;102045.09;5055812;28;19917;-56
2022/09/01 07:07:12;;;;;;;;;;;;;;;15.88;nan;102052.50;5055568;28;19931;-54
2022/09/01 07:09:37;;;;;;;;;;;;;;;15.96;nan;102059.28;5037489;28;20007;-53
2022/09/01 07:12:04;;;;;;;;;;;;;;;16.12;nan;102060.44;5055531;28;19912;-55
2022/09/01 07:14:29;;;;;;;;;;;;;;;16.29;nan;102063.34;5037527;28;19974;-57
2022/09/01 07:16:55;;;;;;;;;;;;;;;16.46;nan;102068.03;5055457;28;20383;-54
2022/09/01 07:19:20;;;;;;;;;;;;;;;16.58;nan;102064.94;5055352;28;19915;-55
2022/09/01 07:21:45;;;;;;;;;;;;;;;16.71;nan;102068.88;5055191;28;20430;-60
2022/09/01 07:24:11;;;;;;;;;;;;;;;16.83;nan;102071.06;5053598;28;20414;-53
2022/09/01 07:26:37;;;;;;;;;;;;;;;16.93;nan;102065.41;5036667;28;20008;-58
2022/09/01 07:29:03;;;;;;;;;;;;;;;17.01;nan;102076.59;5053440;28;19940;-56
2022/09/01 07:31:30;;;;;;;;;;;;;;;17.14;nan;102062.75;5054017;28;19917;-56
2022/09/01 07:33:57;;;;;;;;;;;;;;;17.27;nan;102077.31;5035937;28;19920;-56
2022/09/01 07:36:23;;;;;;;;;;;;;;;17.40;nan;102072.31;5035806;28;19919;-58
2022/09/01 07:38:52;;;;;;;;;;;;;;;17.38;nan;102083.03;5035790;28;19913;-58
2022/09/01 07:41:18;;;;;;;;;;;;;;;17.52;nan;102071.81;5054111;28;19925;-53
2022/09/01 07:43:43;;;;;;;;;;;;;;;17.66;nan;102065.97;5053811;28;19959;-58
2022/09/01 07:46:09;;;;;;;;;;;;;;;17.83;nan;102079.44;5036396;28;19947;-56
2022/09/01 07:48:34;;;;;;;;;;;;;;;17.92;nan;102084.38;5036062;28;19912;-57
2022/09/01 07:50:59;;;;;;;;;;;;;;;17.99;nan;102075.16;5053752;28;20386;-58
2022/09/01 07:53:30;;;;;;;;;;;;;;;18.20;nan;102071.56;5036071;28;19923;-56
2022/09/01 07:55:56;;;;;;;;;;;;;;;18.57;nan;102083.22;5053896;28;19913;-57
2022/09/01 07:58:22;;;;;;;;;;;;;;;18.77;nan;102085.84;5053827;28;19920;-55
2022/09/01 08:00:48;;;;;;;;;;;;;;;19.16;nan;102091.09;5053521;28;19928;-57
2022/09/01 08:03:13;;;;;;;;;;;;;;;19.72;nan;102085.66;5053752;28;19912;-58
2022/09/01 08:05:39;;;;;;;;;;;;;;;20.57;nan;102087.41;5053551;28;19952;-56
2022/09/01 08:08:05;;;;;;;;;;;;;;;21.22;nan;102102.50;5035334;28;19991;-58
2022/09/01 08:10:30;;;;;;;;;;;;;;;22.04;nan;102119.13;5053341;28;19916;-55
2022/09/01 08:12:55;;;;;;;;;;;;;;;22.72;nan;102123.00;5053552;28;19913;-54
2022/09/01 08:15:21;;;;;;;;;;;;;;;23.04;nan;102132.56;5035663;28;20425;-55
2022/09/01 08:17:46;;;;;;;;;;;;;;;23.39;nan;102122.25;5053591;28;19912;-59
2022/09/01 08:20:11;;;;;;;;;;;;;;;24.10;nan;102130.88;5053270;28;20026;-58
2022/09/01 08:22:37;;;;;;;;;;;;;;;24.75;nan;102128.94;5035099;28;19928;-59
2022/09/01 08:25:04;;;;;;;;;;;;;;;25.14;nan;102136.88;5053370;28;19927;-57
2022/09/01 08:27:30;;;;;;;;;;;;;;;25.18;nan;102138.41;5053345;28;19912;-59
2022/09/01 08:29:55;;;;;;;;;;;;;;;25.60;nan;102141.59;5052926;28;19948;-58
2022/09/01 08:32:21;;;;;;;;;;;;;;;25.89;nan;102151.03;5053044;28;20029;-56
2022/09/01 08:34:46;;;;;;;;;;;;;;;25.37;nan;102134.31;5053106;28;19925;-58
2022/09/01 08:37:12;;;;;;;;;;;;;;;25.31;nan;102135.63;5052909;28;19964;-61
2022/09/01 08:39:37;;;;;;;;;;;;;;;25.59;nan;102139.91;5053839;28;19924;-61
2022/09/01 08:42:05;;;;;;;;;;;;;;;25.89;nan;102132.16;5053118;28;19917;-57
2022/09/01 08:44:33;;;;;;;;;;;;;;;26.24;nan;102135.75;5052570;28;20390;-59
2022/09/01 08:47:02;;;;;;;;;;;;;;;26.29;nan;102140.78;5052570;28;19913;-61
2022/09/01 08:49:28;;;;;;;;;;;;;;;26.74;nan;102144.41;5052584;28;20375;-58
2022/09/01 08:51:53;;;;;;;;;;;;;;;26.87;nan;102141.63;5052619;28;19943;-56
2022/09/01 08:54:24;;;;;;;;;;;;;;;26.66;nan;102139.63;5052827;28;19997;-60
2022/09/01 08:57:18;;;;;;;;;;;;;;;26.97;nan;102138.03;5052700;28;19913;-59
2022/09/01 08:59:44;;;;;;;;;;;;;;;26.99;nan;102138.78;5034854;28;19912;-60
2022/09/01 09:02:12;;;;;;;;;;;;;;;27.22;nan;102135.06;5051987;28;19921;-57
2022/09/01 09:05:01;;;;;;;;;;;;;;;27.18;nan;102136.28;5045680;28;20441;-57
2022/09/01 09:07:48;;;;;;;;;;;;;;;27.36;nan;102133.94;5047406;28;19975;-56
2022/09/01 09:10:17;;;;;;;;;;;;;;;27.54;nan;102118.91;5052110;28;19916;-61
2022/09/01 09:12:50;;;;;;;;;;;;;;;27.92;nan;102123.81;5051042;28;19967;-60
2022/09/01 09:15:24;;;;;;;;;;;;;;;28.17;nan;102122.56;5052061;28;19921;-61
2022/09/01 09:17:58;;;;;;;;;;;;;;;28.37;nan;102121.72;5034212;28;19978;-59
2022/09/01 09:20:23;;;;;;;;;;;;;;;28.29;nan;102116.97;5034770;28;19919;-60
2022/09/01 09:22:49;;;;;;;;;;;;;;;28.21;nan;102124.91;5051786;28;20035;-61
2022/09/01 09:25:15;;;;;;;;;;;;;;;28.67;nan;102116.34;5034047;28;19917;-62
2022/09/01 09:27:42;;;;;;;;;;;;;;;28.31;nan;102111.44;5051785;28;19919;-59
2022/09/01 09:30:07;;;;;;;;;;;;;;;28.42;nan;102119.47;5052313;28;20003;-58
2022/09/01 09:32:51;;;;;;;;;;;;;;;28.57;nan;102111.84;5033663;28;20008;-61
2022/09/01 09:35:18;;;;;;;;;;;;;;;28.55;nan;102109.25;5051790;28;19960;-64
2022/09/01 09:37:43;;;;;;;;;;;;;;;28.86;nan;102108.31;5051773;28;19916;-60
2022/09/01 09:40:16;;;;;;;;;;;;;;;29.32;nan;102105.03;5051599;28;20015;-63
2022/09/01 09:42:42;;;;;;;;;;;;;;;29.27;nan;102106.44;5051830;28;19971;-62
2022/09/01 09:45:27;;;;;;;;;;;;;;;28.91;nan;102106.03;5033728;28;20011;-60
2022/09/01 09:47:53;;;;;;;;;;;;;;;29.28;nan;102092.72;5040550;28;19919;-59
2022/09/01 09:50:25;;;;;;;;;;;;;;;29.79;nan;102099.75;5033480;28;19919;-61
2022/09/01 09:52:51;;;;;;;;;;;;;;;29.08;nan;102096.38;5051333;28;20295;-63
2022/09/01 09:55:23;;;;;;;;;;;;;;;29.14;nan;102101.25;5034043;28;20400;-61
2022/09/01 09:57:48;;;;;;;;;;;;;;;28.98;nan;102096.34;5051405;28;19913;-64
2022/09/01 10:00:22;;;;;;;;;;;;;;;29.17;nan;102090.13;5033544;28;19940;-60
2022/09/01 10:02:51;;;;;;;;;;;;;;;29.18;nan;102089.13;5051129;28;19939;-62
2022/09/01 10:05:27;;;;;;;;;;;;;;;29.20;nan;102079.00;5051309;28;20299;-62
2022/09/01 10:07:52;;;;;;;;;;;;;;;30.04;nan;102096.47;5050873;28;20304;-64
2022/09/01 10:10:23;;;;;;;;;;;;;;;29.99;nan;102091.50;5050750;28;19921;-61
2022/09/01 10:12:50;;;;;;;;;;;;;;;30.66;nan;102090.47;5050668;28;19952;-64
2022/09/01 10:15:15;;;;;;;;;;;;;;;29.98;nan;102048.19;5033157;28;19924;-61
2022/09/01 10:17:41;;;;;;;;;;;;;;;30.53;nan;102089.97;5033700;28;19913;-62
2022/09/01 10:20:17;;;;;;;;;;;;;;;30.72;nan;102099.88;5051518;28;19909;-61
2022/09/01 10:22:42;;;;;;;;;;;;;;;30.45;nan;102082.53;5033607;28;19944;-60
2022/09/01 10:25:08;;;;;;;;;;;;;;;30.49;nan;102075.81;5051279;28;19963;-60
2022/09/01 10:27:38;;;;;;;;;;;;;;;30.63;nan;102078.03;5033216;28;19917;-60
2022/09/01 10:30:12;;;;;;;;;;;;;;;30.53;nan;102079.91;5034313;28;19912;-64
2022/09/01 10:32:39;;;;;;;;;;;;;;;30.57;nan;102080.47;5055446;28;19912;-63
2022/09/01 10:35:06;;;;;;;;;;;;;;;30.72;nan;102079.00;5055184;28;20382;-60
2022/09/01 10:37:31;;;;;;;;;;;;;;;30.42;nan;102061.09;5037583;28;19917;-61
2022/09/01 10:40:10;;;;;;;;;;;;;;;29.53;nan;102077.78;5037288;28;19917;-64
2022/09/01 10:42:36;;;;;;;;;;;;;;;29.18;nan;102070.16;5055215;28;19916;-62
2022/09/01 10:45:01;;;;;;;;;;;;;;;29.10;nan;102069.97;5055210;28;20402;-62
2022/09/01 10:47:32;;;;;;;;;;;;;;;29.48;nan;102069.22;5036996;28;19928;-60
2022/09/01 10:49:59;;;;;;;;;;;;;;;29.55;nan;102068.50;5037759;28;20367;-67
2022/09/01 10:52:39;;;;;;;;;;;;;;;29.30;nan;102060.06;5055040;28;19974;-65
2022/09/01 10:55:06;;;;;;;;;;;;;;;28.77;nan;102062.19;5054930;28;20398;-61
2022/09/01 10:57:36;;;;;;;;;;;;;;;28.43;nan;102059.72;5037009;28;19916;-62
2022/09/01 11:00:25;;;;;;;;;;;;;;;28.78;nan;102072.03;5054957;28;19916;-62
2022/09/01 11:03:09;;;;;;;;;;;;;;;29.12;nan;102064.41;5046280;28;20054;-65
2022/09/01 11:06:09;;;;;;;;;;;;;;;29.26;nan;102058.63;5054944;28;19913;-61
2022/09/01 11:08:42;;;;;;;;;;;;;;;30.06;nan;102051.03;4992929;28;20057;-65
2022/09/01 11:11:16;;;;;;;;;;;;;;;30.92;nan;102047.97;5044426;28;19920;-62
2022/09/01 11:13:44;;;;;;;;;;;;;;;32.47;nan;102060.09;5036663;28;19916;-62
2022/09/01 11:16:30;;;;;;;;;;;;;;;33.50;nan;102058.94;5054420;28;19920;-62
2022/09/01 11:18:55;;;;;;;;;;;;;;;34.10;nan;102051.25;5054177;28;19998;-64
2022/09/01 11:21:27;;;;;;;;;;;;;;;34.40;nan;102056.84;5038596;28;19917;-63
2022/09/01 11:24:12;;;;;;;;;;;;;;;34.90;nan;102056.50;5054142;28;19916;-61
2022/09/01 11:26:44;;;;;;;;;;;;;;;33.40;nan;102056.34;5054566;28;19981;-60
2022/09/01 11:29:29;;;;;;;;;;;;;;;32.18;nan;102043.22;5054341;28;19913;-60
2022/09/01 11:31:55;;;;;;;;;;;;;;;32.37;nan;102039.44;5036036;28;19922;-61
2022/09/01 11:34:22;;;;;;;;;;;;;;;33.29;nan;102037.56;5036497;28;19999;-61
2022/09/01 11:36:51;;;;;;;;;;;;;;;33.81;nan;102038.97;5054178;28;19924;-62
2022/09/01 11:39:16;;;;;;;;;;;;;;;32.76;nan;102035.19;5053992;28;19917;-62
2022/09/01 11:41:53;;;;;;;;;;;;;;;32.32;nan;102034.44;5052910;28;19966;-60
2022/09/01 11:44:44;;;;;;;;;;;;;;;33.32;nan;102049.03;5053914;28;19990;-61
2022/09/01 11:47:17;;;;;;;;;;;;;;;33.57;nan;102028.03;5050457;28;20412;-61
2022/09/01 11:49:47;;;;;;;;;;;;;;;34.52;nan;102037.31;5035409;28;20360;-61
2022/09/01 11:52:14;;;;;;;;;;;;;;;33.87;nan;102034.72;5035699;28;19924;-63
2022/09/01 11:54:40;;;;;;;;;;;;;;;34.21;nan;102032.63;5053474;28;19912;-63
2022/09/01 11:57:24;;;;;;;;;;;;;;;33.42;nan;102034.34;5035667;28;19966;-61
2022/09/01 11:59:49;;;;;;;;;;;;;;;34.31;nan;102030.56;5053654;28;20119;-62
2022/09/01 12:02:25;;;;;;;;;;;;;;;34.71;nan;102028.69;5035572;28;20280;-62
2022/09/01 12:04:53;;;;;;;;;;;;;;;35.35;nan;102022.03;5053325;28;20387;-61
2022/09/01 12:07:42;;;;;;;;;;;;;;;34.79;nan;102018.59;5053237;28;19919;-62
2022/09/01 12:10:21;;;;;;;;;;;;;;;34.52;nan;102021.75;5035743;28;20014;-62
2022/09/01 12:12:46;;;;;;;;;;;;;;;34.96;nan;102022.94;5035660;28;20023;-60
2022/09/01 12:15:20;;;;;;;;;;;;;;;35.15;nan;102020.78;5035541;28;20007;-63
2022/09/01 12:17:45;;;;;;;;;;;;;;;34.16;nan;102017.78;5053819;28;20360;-62
2022/09/01 12:20:37;;;;;;;;;;;;;;;33.79;nan;102008.28;5035444;28;19916;-62
2022/09/01 12:23:03;;;;;;;;;;;;;;;32.98;nan;102012.78;5050090;28;19966;-63
2022/09/01 12:25:32;;;;;;;;;;;;;;;30.87;nan;102019.53;5035645;28;19944;-60
2022/09/01 12:28:01;;;;;;;;;;;;;;;30.09;nan;102010.84;5019082;28;20054;-60
2022/09/01 12:30:26;;;;;;;;;;;;;;;29.37;nan;102006.94;5035037;28;19917;-61
2022/09/01 12:32:52;;;;;;;;;;;;;;;30.40;nan;102013.34;5035405;28;19917;-61
2022/09/01 12:35:21;;;;;;;;;;;;;;;30.91;nan;102012.78;5035577;28;19928;-62
2022/09/01 12:37:47;;;;;;;;;;;;;;;31.16;nan;102007.50;5035544;28;20449;-61
2022/09/01 12:40:44;;;;;;;;;;;;;;;31.62;nan;101997.38;5035248;28;19921;-60
2022/09/01 12:43:09;;;;;;;;;;;;;;;32.83;nan;102001.66;5040048;28;19932;-61
2022/09/01 12:45:41;;;;;;;;;;;;;;;33.80;nan;102000.94;5053013;28;19995;-62
2022/09/01 12:48:06;;;;;;;;;;;;;;;35.04;nan;102000.13;5035088;28;19913;-59
2022/09/01 12:50:33;;;;;;;;;;;;;;;34.75;nan;101999.97;5035080;28;19935;-61
2022/09/01 12:53:00;;;;;;;;;;;;;;;34.44;nan;102003.50;5052069;28;19924;-61
2022/09/01 12:55:35;;;;;;;;;;;;;;;34.97;nan;102002.72;5034314;28;20279;-59
2022/09/01 12:58:01;;;;;;;;;;;;;;;34.45;nan;101999.75;5035139;28;20007;-60
2022/09/01 13:00:28;;;;;;;;;;;;;;;35.36;nan;102002.66;5052646;28;19916;-57
2022/09/01 13:02:53;;;;;;;;;;;;;;;35.39;nan;101995.97;5034753;28;19941;-60
2022/09/01 13:05:18;;;;;;;;;;;;;;;35.52;nan;101997.03;5052593;28;20363;-60
2022/09/01 13:07:44;;;;;;;;;;;;;;;35.43;nan;101989.09;5052407;28;19913;-60